createdAt,value
2023-01-13T00:01:59.712Z,100944.00
2023-01-13T00:05:02.483Z,100946.41
2023-01-13T00:08:06.556Z,100939.38
2023-01-13T00:11:09.982Z,100933.63
2023-01-13T00:14:12.542Z,100940.19
2023-01-13T00:17:14.957Z,100937.81
2023-01-13T00:20:18.012Z,100933.97
2023-01-13T00:23:20.643Z,100941.56
2023-01-13T00:26:28.212Z,100937.31
2023-01-13T00:29:32.507Z,100941.22
2023-01-13T00:32:35.731Z,100941.75
2023-01-13T00:35:38.435Z,100947.38
2023-01-13T00:38:43.222Z,100949.88
2023-01-13T00:42:04.272Z,100945.88
2023-01-13T00:45:07.434Z,100941.88
2023-01-13T00:48:09.908Z,100945.56
2023-01-13T00:51:17.341Z,100941.09
2023-01-13T00:54:19.931Z,100944.75
2023-01-13T00:57:22.569Z,100943.72
2023-01-13T01:00:25.184Z,100942.75
2023-01-13T01:03:27.971Z,100947.53
2023-01-13T01:06:31.450Z,100950.41
2023-01-13T01:09:34.801Z,100946.47
2023-01-13T01:12:37.205Z,100935.16
2023-01-13T01:15:43.732Z,100939.88
2023-01-13T01:18:47.925Z,100937.53
2023-01-13T01:21:50.671Z,100932.88
2023-01-13T01:24:53.275Z,100936.88
2023-01-13T01:27:55.868Z,100937.19
2023-01-13T01:30:59.749Z,100931.66
2023-01-13T01:34:02.503Z,100930.25
2023-01-13T01:37:05.525Z,100928.41
2023-01-13T01:40:09.355Z,100927.31
2023-01-13T01:43:41.333Z,100915.81
2023-01-13T01:46:45.056Z,100910.38
2023-01-13T01:49:48.066Z,100908.88
2023-01-13T01:52:56.162Z,100917.50
2023-01-13T01:56:00.200Z,100899.34
2023-01-13T01:59:03.072Z,100895.91
2023-01-13T02:02:06.604Z,100889.00
2023-01-13T02:05:09.658Z,100890.03
2023-01-13T02:08:14.020Z,100890.91
2023-01-13T02:11:51.715Z,100885.31
2023-01-13T02:14:54.406Z,100875.34
2023-01-13T02:18:12.027Z,100869.84
2023-01-13T02:21:52.503Z,100877.25
2023-01-13T02:25:11.023Z,100877.78
2023-01-13T02:28:31.691Z,100880.16
2023-01-13T02:31:43.219Z,100871.53
2023-01-13T02:34:56.957Z,100871.47
2023-01-13T02:38:01.980Z,100877.53
2023-01-13T02:41:31.028Z,100873.31
2023-01-13T02:44:41.348Z,100867.53
2023-01-13T02:47:47.615Z,100872.31
2023-01-13T02:51:22.771Z,100873.44
2023-01-13T02:55:00.471Z,100877.28
2023-01-13T02:58:06.468Z,100883.03
2023-01-13T03:01:09.323Z,100878.81
2023-01-13T03:04:14.033Z,100879.59
2023-01-13T03:07:34.151Z,100882.63
2023-01-13T03:11:03.935Z,100889.41
2023-01-13T03:14:15.490Z,100892.91
2023-01-13T03:17:25.219Z,100891.47
2023-01-13T03:20:44.013Z,100886.53
2023-01-13T03:23:54.080Z,100879.38
2023-01-13T03:26:59.618Z,100875.13
2023-01-13T03:30:23.646Z,100873.31
2023-01-13T03:33:30.945Z,100871.28
2023-01-13T03:36:38.724Z,100875.06
2023-01-13T03:39:50.288Z,100874.16
2023-01-13T03:43:22.496Z,100876.97
2023-01-13T03:46:36.343Z,100874.31
2023-01-13T03:50:08.290Z,100871.13
2023-01-13T03:53:18.039Z,100874.63
2023-01-13T03:56:36.686Z,100866.34
2023-01-13T03:59:43.526Z,100870.63
2023-01-13T04:02:58.584Z,100863.78
2023-01-13T04:06:23.203Z,100864.28
2023-01-13T04:09:28.761Z,100867.69
2023-01-13T04:13:03.190Z,100860.84
2023-01-13T04:16:11.459Z,100866.34
2023-01-13T04:19:14.252Z,100861.63
2023-01-13T04:22:17.138Z,100849.50
2023-01-13T04:25:19.571Z,100855.56
2023-01-13T04:28:22.786Z,100862.44
2023-01-13T04:31:25.245Z,100859.00
2023-01-13T04:34:28.561Z,100857.41
2023-01-13T04:37:31.565Z,100855.88
2023-01-13T04:40:34.690Z,100856.69
2023-01-13T04:43:37.439Z,100866.44
2023-01-13T04:46:40.072Z,100861.44
2023-01-13T04:49:43.042Z,100860.91
2023-01-13T04:52:52.838Z,100871.47
2023-01-13T04:55:55.362Z,100876.50
2023-01-13T04:58:58.298Z,100879.38
2023-01-13T05:02:00.822Z,100864.09
2023-01-13T05:05:04.283Z,100864.66
2023-01-13T05:08:09.084Z,100872.81
2023-01-13T05:11:29.922Z,100878.31
2023-01-13T05:14:50.997Z,100873.59
2023-01-13T05:17:53.707Z,100872.31
2023-01-13T05:20:56.675Z,100877.59
2023-01-13T05:24:17.911Z,100882.00
2023-01-13T05:27:20.536Z,100878.78
2023-01-13T05:30:27.297Z,100874.78
2023-01-13T05:33:30.020Z,100876.25
2023-01-13T05:36:32.801Z,100886.25
2023-01-13T05:39:55.845Z,100894.41
2023-01-13T05:43:20.673Z,100890.16
2023-01-13T05:46:23.900Z,100888.56
2023-01-13T05:49:26.741Z,100890.09
2023-01-13T05:52:29.544Z,100887.47
2023-01-13T05:55:32.489Z,100890.91
2023-01-13T05:58:35.460Z,100886.44
2023-01-13T06:01:38.249Z,100887.22
2023-01-13T06:04:40.678Z,100888.28
2023-01-13T06:07:43.395Z,100886.44
2023-01-13T06:10:47.600Z,100892.00
2023-01-13T06:13:50.140Z,100898.31
2023-01-13T06:16:52.898Z,100889.63
2023-01-13T06:19:55.909Z,100898.34
2023-01-13T06:22:59.490Z,100897.28
2023-01-13T06:26:19.916Z,100902.81
2023-01-13T06:29:22.641Z,100902.06
2023-01-13T06:32:30.318Z,100908.69
2023-01-13T06:35:36.457Z,100905.81
2023-01-13T06:38:43.574Z,100902.66
2023-01-13T06:42:07.666Z,100912.13
2023-01-13T06:45:11.103Z,100921.63
2023-01-13T06:48:14.123Z,100917.72
2023-01-13T06:51:16.698Z,100919.00
2023-01-13T06:54:19.211Z,100919.06
2023-01-13T06:57:21.838Z,100918.50
2023-01-13T07:00:26.927Z,100918.03
2023-01-13T07:03:29.575Z,100916.75
2023-01-13T07:06:32.458Z,100917.50
2023-01-13T07:09:35.539Z,100923.88
2023-01-13T07:12:57.260Z,100919.88
2023-01-13T07:16:03.487Z,100916.47
2023-01-13T07:19:05.962Z,100919.09
2023-01-13T07:22:08.612Z,100924.63
2023-01-13T07:25:12.115Z,100922.00
2023-01-13T07:28:15.510Z,100927.31
2023-01-13T07:31:23.508Z,100922.28
2023-01-13T07:34:26.065Z,100914.34
2023-01-13T07:37:28.619Z,100918.31
2023-01-13T07:40:31.241Z,100911.41
2023-01-13T07:43:33.980Z,100924.13
2023-01-13T07:46:37.952Z,100922.53
2023-01-13T07:49:40.514Z,100930.19
2023-01-13T07:52:43.227Z,100928.81
2023-01-13T07:55:45.924Z,100935.34
2023-01-13T07:58:51.111Z,100934.59
2023-01-13T08:01:54.012Z,100932.16
2023-01-13T08:04:58.204Z,100938.94
2023-01-13T08:08:02.129Z,100933.66
2023-01-13T08:11:07.076Z,100946.34
2023-01-13T08:14:09.751Z,100936.84
2023-01-13T08:17:12.826Z,100945.06
2023-01-13T08:20:17.357Z,100946.59
2023-01-13T08:23:22.158Z,100944.19
2023-01-13T08:26:24.914Z,100948.13
2023-01-13T08:29:27.511Z,100949.69
2023-01-13T08:32:30.072Z,100944.50
2023-01-13T08:35:32.603Z,100950.25
2023-01-13T08:38:36.307Z,100949.16
2023-01-13T08:41:57.178Z,100955.22
2023-01-13T08:44:59.824Z,100954.94
2023-01-13T08:48:03.319Z,100949.81
2023-01-13T08:51:08.985Z,100947.50
2023-01-13T08:54:12.206Z,100951.53
2023-01-13T08:57:15.597Z,100951.41
2023-01-13T09:00:18.869Z,100950.63
2023-01-13T09:03:21.978Z,100959.88
2023-01-13T09:06:24.957Z,100956.69
2023-01-13T09:09:29.361Z,100952.88
2023-01-13T09:12:50.477Z,100961.75
2023-01-13T09:15:56.618Z,100950.91
2023-01-13T09:18:59.205Z,100950.66
2023-01-13T09:22:02.331Z,100947.47
2023-01-13T09:25:05.367Z,100952.25
2023-01-13T09:28:08.860Z,100953.06
2023-01-13T09:31:11.925Z,100956.06
2023-01-13T09:34:38.460Z,100949.75
2023-01-13T09:37:41.577Z,100943.78
2023-01-13T09:40:49.153Z,100947.59
2023-01-13T09:43:59.405Z,100940.50
2023-01-13T09:47:07.238Z,100937.81
2023-01-13T09:50:19.381Z,100933.25
2023-01-13T09:53:38.680Z,100923.34
2023-01-13T09:56:41.344Z,100930.94
2023-01-13T09:59:44.951Z,100928.47
2023-01-13T10:03:20.747Z,100920.09
2023-01-13T10:07:59.128Z,100920.59
2023-01-13T10:12:28.196Z,100927.44
2023-01-13T10:15:30.963Z,100913.47
2023-01-13T10:18:37.727Z,100911.50
2023-01-13T10:22:09.281Z,100909.44
2023-01-13T10:25:20.503Z,100905.81
2023-01-13T10:28:24.084Z,100898.31
2023-01-13T10:31:27.071Z,100900.94
2023-01-13T10:34:29.794Z,100903.88
2023-01-13T10:37:32.588Z,100904.91
2023-01-13T10:40:36.249Z,100904.97
2023-01-13T10:43:38.934Z,100907.84
2023-01-13T10:46:55.833Z,100904.97
2023-01-13T10:50:19.648Z,100906.94
2023-01-13T10:53:26.442Z,100899.63
2023-01-13T10:56:32.972Z,100899.59
2023-01-13T10:59:40.449Z,100904.91
2023-01-13T11:02:43.041Z,100903.59
2023-01-13T11:06:19.785Z,100913.25
2023-01-13T11:09:23.024Z,100911.97
2023-01-13T11:12:35.207Z,100906.31
2023-01-13T11:15:50.900Z,100910.41
2023-01-13T11:19:02.839Z,100898.66
2023-01-13T11:22:12.525Z,100894.44
2023-01-13T11:25:30.248Z,100896.31
2023-01-13T11:28:35.583Z,100891.16
2023-01-13T11:32:09.948Z,100904.38
2023-01-13T11:35:21.654Z,100899.59
2023-01-13T11:38:28.665Z,100900.00
2023-01-13T11:41:44.896Z,100894.00
2023-01-13T11:45:01.794Z,100890.13
2023-01-13T11:48:05.587Z,100886.31
2023-01-13T11:51:20.782Z,100887.69
2023-01-13T11:54:51.787Z,100886.34
2023-01-13T11:58:16.657Z,100880.88
2023-01-13T12:01:36.038Z,100877.88
2023-01-13T12:05:06.579Z,100877.09
2023-01-13T12:08:23.010Z,100876.28
2023-01-13T12:11:57.294Z,100867.34
2023-01-13T12:15:18.335Z,100865.50
2023-01-13T12:18:50.091Z,100859.19
2023-01-13T12:22:16.385Z,100858.88
2023-01-13T12:25:39.571Z,100859.00
2023-01-13T12:28:51.478Z,100852.03
2023-01-13T12:31:54.746Z,100842.44
2023-01-13T12:35:06.690Z,100849.94
2023-01-13T12:38:24.366Z,100846.03
2023-01-13T12:42:07.923Z,100836.22
2023-01-13T12:45:10.498Z,100825.22
2023-01-13T12:48:56.770Z,100836.56
2023-01-13T12:52:11.005Z,100833.38
2023-01-13T12:55:16.741Z,100831.53
2023-01-13T12:58:28.159Z,100828.31
2023-01-13T13:01:37.765Z,100829.69
2023-01-13T13:04:52.328Z,100829.47
2023-01-13T13:08:39.115Z,100827.91
2023-01-13T13:12:03.572Z,100822.31
2023-01-13T13:15:20.829Z,100833.63
2023-01-13T13:18:28.314Z,100829.59
2023-01-13T13:22:09.916Z,100847.59
2023-01-13T13:25:24.854Z,100843.38
2023-01-13T13:28:33.168Z,100840.19
2023-01-13T13:31:56.277Z,100845.41
2023-01-13T13:35:17.597Z,100840.13
2023-01-13T13:39:34.363Z,100851.28
2023-01-13T13:43:08.789Z,100855.03
2023-01-13T13:46:47.631Z,100853.78
2023-01-13T13:49:54.425Z,100850.28
2023-01-13T13:53:07.413Z,100852.94
2023-01-13T13:56:20.755Z,100858.16
2023-01-13T13:59:26.984Z,100865.00
2023-01-13T14:02:31.871Z,100865.81
2023-01-13T14:05:36.405Z,100857.66
2023-01-13T14:08:46.621Z,100861.34
2023-01-13T14:12:04.443Z,100857.09
2023-01-13T14:15:32.351Z,100857.34
2023-01-13T14:18:48.377Z,100853.19
2023-01-13T14:21:50.814Z,100859.25
2023-01-13T14:24:57.928Z,100850.25
2023-01-13T14:28:27.965Z,100856.84
2023-01-13T14:31:32.056Z,100854.47
2023-01-13T14:34:35.659Z,100852.88
2023-01-13T14:37:40.939Z,100859.75
2023-01-13T14:40:45.759Z,100853.44
2023-01-13T14:43:50.331Z,100853.69
2023-01-13T14:46:57.687Z,100853.66
2023-01-13T14:50:06.287Z,100846.81
2023-01-13T14:53:29.302Z,100846.50
2023-01-13T14:56:42.168Z,100849.38
2023-01-13T14:59:51.668Z,100843.03
2023-01-13T15:02:59.048Z,100838.00
2023-01-13T15:06:01.575Z,100835.38
2023-01-13T15:09:12.695Z,100838.00
2023-01-13T15:12:29.361Z,100849.59
2023-01-13T15:15:33.978Z,100852.50
2023-01-13T15:18:40.092Z,100852.47
2023-01-13T15:21:43.299Z,100844.06
2023-01-13T15:24:47.894Z,100842.72
2023-01-13T15:27:52.908Z,100849.59
2023-01-13T15:31:00.619Z,100841.13
2023-01-13T15:34:03.440Z,100846.94
2023-01-13T15:37:08.224Z,100840.88
2023-01-13T15:40:30.976Z,100841.13
2023-01-13T15:43:51.925Z,100834.78
2023-01-13T15:46:54.921Z,100830.81
2023-01-13T15:49:57.415Z,100829.22
2023-01-13T15:53:00.660Z,100833.72
2023-01-13T15:56:06.093Z,100843.44
2023-01-13T15:59:18.824Z,100851.34
2023-01-13T16:02:22.722Z,100852.16
2023-01-13T16:05:25.988Z,100859.00
2023-01-13T16:08:28.715Z,100859.00
2023-01-13T16:11:31.911Z,100859.81
2023-01-13T16:14:34.454Z,100860.59
2023-01-13T16:17:37.626Z,100865.63
2023-01-13T16:20:40.425Z,100861.41
2023-01-13T16:23:43.577Z,100854.53
2023-01-13T16:26:46.065Z,100858.75
2023-01-13T16:29:49.936Z,100858.75
2023-01-13T16:32:52.827Z,100859.81
2023-01-13T16:36:11.021Z,100862.44
2023-01-13T16:39:22.522Z,100862.44
2023-01-13T16:42:25.303Z,100871.94
2023-01-13T16:45:27.842Z,100865.38
2023-01-13T16:48:31.141Z,100862.19
2023-01-13T16:51:33.711Z,100865.63
2023-01-13T16:54:36.742Z,100860.09
2023-01-13T16:57:39.821Z,100862.97
2023-01-13T17:00:42.836Z,100861.41
2023-01-13T17:03:49.062Z,100864.31
2023-01-13T17:06:56.185Z,100864.34
2023-01-13T17:09:59.155Z,100866.97
2023-01-13T17:13:14.783Z,100874.63
2023-01-13T17:16:26.129Z,100873.41
2023-01-13T17:19:29.116Z,100878.66
2023-01-13T17:22:32.324Z,100883.66
2023-01-13T17:25:35.011Z,100875.97
2023-01-13T17:28:37.611Z,100867.59
2023-01-13T17:31:40.776Z,100869.63
2023-01-13T17:34:44.492Z,100870.91
2023-01-13T17:37:47.365Z,100866.97
2023-01-13T17:40:50.632Z,100866.97
2023-01-13T18:07:22.809Z,100866.59
2023-01-13T18:10:25.473Z,100870.81
2023-01-13T18:13:28.945Z,100871.88
2023-01-13T18:16:32.294Z,100873.44
2023-01-13T18:19:53.658Z,100874.25
2023-01-13T18:23:14.645Z,100865.56
2023-01-13T18:26:37.818Z,100862.38
2023-01-13T18:29:40.510Z,100863.97
2023-01-13T18:32:43.759Z,100876.59
2023-01-13T18:35:46.470Z,100871.59
2023-01-13T18:38:51.093Z,100872.47
2023-01-13T18:42:12.761Z,100877.16
2023-01-13T18:45:15.674Z,100877.13
2023-01-13T18:48:18.579Z,100880.00
2023-01-13T18:51:21.809Z,100887.66
2023-01-13T18:54:24.203Z,100893.06
2023-01-13T18:57:27.617Z,100892.47
2023-01-13T19:00:36.411Z,100895.34
2023-01-13T19:03:39.626Z,100905.34
2023-01-13T19:06:53.600Z,100906.38
2023-01-13T19:09:56.551Z,100903.97
2023-01-13T19:12:59.343Z,100897.91
2023-01-13T19:16:09.082Z,100898.72
2023-01-13T19:19:11.969Z,100903.50
2023-01-13T19:22:23.527Z,100899.75
2023-01-13T19:25:26.010Z,100901.59
2023-01-13T19:28:29.328Z,100904.78
2023-01-13T19:31:39.172Z,100906.63
2023-01-13T19:34:43.979Z,100902.63
2023-01-13T19:37:46.824Z,100897.88
2023-01-13T19:40:55.961Z,100884.13
2023-01-13T19:44:17.252Z,100886.03
2023-01-13T19:47:20.043Z,100881.59
2023-01-13T19:50:23.267Z,100882.09
2023-01-13T19:53:26.688Z,100887.13
2023-01-13T19:56:30.658Z,100891.41
2023-01-13T19:59:34.040Z,100891.91
2023-01-13T20:02:37.144Z,100905.88
2023-01-13T20:05:40.484Z,100898.03
2023-01-13T20:08:46.189Z,100896.88
2023-01-13T20:11:53.146Z,100895.41
2023-01-13T20:14:56.288Z,100894.34
2023-01-13T20:18:01.076Z,100895.16
2023-01-13T20:21:06.872Z,100896.16
2023-01-13T20:24:17.051Z,100898.53
2023-01-13T20:27:19.580Z,100896.00
2023-01-13T20:30:23.970Z,100900.19
2023-01-13T20:33:26.939Z,100894.66
2023-01-13T20:36:34.189Z,100897.31
2023-01-13T20:39:37.135Z,100890.50
2023-01-13T20:42:45.316Z,100882.06
2023-01-13T20:45:48.116Z,100882.38
2023-01-13T20:48:51.058Z,100878.34
2023-01-13T20:51:55.067Z,100877.56
2023-01-13T20:54:58.260Z,100881.03
2023-01-13T20:58:00.767Z,100890.03
2023-01-13T21:01:04.866Z,100890.50
2023-01-13T21:04:08.280Z,100892.38
2023-01-13T21:07:11.676Z,100900.50
2023-01-13T21:10:14.696Z,100910.59
2023-01-13T21:13:36.254Z,100925.34
2023-01-13T21:16:38.733Z,100918.19
2023-01-13T21:19:41.405Z,100916.91
2023-01-13T21:22:45.899Z,100921.09
2023-01-13T21:25:48.856Z,100930.59
2023-01-13T21:28:51.474Z,100927.16
2023-01-13T21:31:54.839Z,100930.84
2023-01-13T21:34:58.941Z,100933.66
2023-01-13T21:38:01.817Z,100925.44
2023-01-13T21:41:07.722Z,100934.63
2023-01-13T21:44:34.389Z,100923.59
2023-01-13T21:47:49.010Z,100929.91
2023-01-13T21:50:51.901Z,100933.91
2023-01-13T21:53:55.410Z,100933.09
2023-01-13T21:56:58.301Z,100936.84
2023-01-13T22:00:01.197Z,100928.44
2023-01-13T22:03:06.350Z,100927.34
2023-01-13T22:06:08.911Z,100936.03
2023-01-13T22:09:12.903Z,100943.16
2023-01-13T22:12:17.871Z,100946.28
2023-01-13T22:15:21.001Z,100947.06
2023-01-13T22:18:23.501Z,100946.28
2023-01-13T22:21:26.192Z,100939.41
2023-01-13T22:24:30.210Z,100934.94
2023-01-13T22:27:39.319Z,100927.81
2023-01-13T22:30:44.351Z,100926.25
2023-01-13T22:33:48.133Z,100920.41
2023-01-13T22:36:50.582Z,100915.44
2023-01-13T22:39:53.682Z,100925.69
2023-01-13T22:42:56.441Z,100919.63
2023-01-13T22:46:11.157Z,100928.56
2023-01-13T22:49:14.695Z,100923.00
2023-01-13T22:52:17.724Z,100929.38
2023-01-13T22:55:20.431Z,100922.75
2023-01-13T22:58:23.875Z,100924.59
2023-01-13T23:01:28.871Z,100926.44
2023-01-13T23:04:32.123Z,100928.56
2023-01-13T23:07:35.664Z,100920.38
2023-01-13T23:10:39.815Z,100912.19
2023-01-13T23:13:43.398Z,100911.16
2023-01-13T23:16:47.385Z,100903.25
2023-01-13T23:19:50.125Z,100900.84
2023-01-13T23:22:53.072Z,100902.94
2023-01-13T23:25:56.511Z,100898.47
2023-01-13T23:29:05.117Z,100894.22
2023-01-13T23:32:07.795Z,100892.66
2023-01-13T23:35:11.184Z,100893.44
2023-01-13T23:38:13.676Z,100889.47
2023-01-13T23:41:19.672Z,100887.63
2023-01-13T23:44:22.254Z,100894.72
2023-01-13T23:47:24.933Z,100899.69
2023-01-13T23:50:28.757Z,100890.44
2023-01-13T23:53:40.082Z,100895.19
2023-01-13T23:56:43.150Z,100899.66
2023-01-13T23:59:46.611Z,100895.41
